This is the latest recevied weather packets stored in our database for station/object SQ6RR-12. If no packets are shown the sender has not sent any weather packets the latest 1 day(s).
| Time | Temp. | Humidity | Pressure | Rain* | Wind** | Luminosity | Snow |
|---|---|---|---|---|---|---|---|
| 1777999249 | 21.67° C | 50% | 1006.7 hPa | 0 mm | 0 m/s | - | - |
| 1777998981 | 21.67° C | 50% | 1006.7 hPa | 0 mm | 0 m/s | - | - |
| 1777998697 | 21.67° C | 50% | 1006.7 hPa | 0 mm | 0 m/s | - | - |
| 1777998427 | 21.67° C | 49% | 1006.7 hPa | 0 mm | 0 m/s | - | - |
| 1777998146 | 21.67° C | 49% | 1006.7 hPa | 0 mm | 0 m/s | - | - |
| 1777997877 | 21.67° C | 50% | 1006.7 hPa | 0 mm | 0 m/s | - | - |
| 1777997607 | 22.22° C | 47% | 1006.7 hPa | 0 mm | 0 m/s | - | - |
| 1777997317 | 22.78° C | 46% | 1006.7 hPa | 0 mm | 0 m/s | - | - |
| 1777997059 | 22.78° C | 47% | 1006.7 hPa | 0 mm | 0 m/s | - | - |
| 1777996803 | 23.33° C | 45% | 1006.7 hPa | 0 mm | 0 m/s | - | - |
| 1777996539 | 23.33° C | 45% | 1006.8 hPa | 0 mm | 0 m/s | - | - |
| 1777996287 | 23.89° C | 44% | 1006.8 hPa | 0 mm | 0 m/s | - | - |
| 1777996012 | 23.89° C | 45% | 1006.8 hPa | 0 mm | 0 m/s | - | - |
| 1777995754 | 23.33° C | 47% | 1006.8 hPa | 0 mm | 0 m/s | - | - |
| 1777995471 | 23.33° C | 46% | 1006.8 hPa | 0 mm | 0 m/s | - | - |
| 1777995199 | 23.89° C | 45% | 1006.8 hPa | 0 mm | 0 m/s | - | - |
| 1777994936 | 23.33° C | 46% | 1006.8 hPa | 0 mm | 0 m/s | - | - |
| 1777994662 | 23.33° C | 45% | 1006.9 hPa | 0 mm | 0 m/s | - | - |
| 1777994412 | 23.33° C | 46% | 1006.9 hPa | 0 mm | 0 m/s | - | - |
| 1777994157 | 23.33° C | 45% | 1006.9 hPa | 0 mm | 0 m/s | - | - |
| 1777993881 | 23.33° C | 44% | 1006.9 hPa | 0 mm | 0 m/s | - | - |
| 1777993607 | 22.78° C | 45% | 1006.9 hPa | 0 mm | 0 m/s | - | - |
| 1777993324 | 23.89° C | 44% | 1006.9 hPa | 0 mm | 0 m/s | - | - |
| 1777993066 | 23.89° C | 45% | 1006.9 hPa | 0 mm | 0 m/s | - | - |
| 1777992812 | 23.89° C | 44% | 1007 hPa | 0 mm | 0 m/s | - | - |
* Rain latest hour (hover to see other rain measurements)
** Current wind speed in m/s (hover to see current wind gust speed)